Terminal Aerodrome Forecast
Issued by NWS

Home | Current Version | Previous Version | Text Only | Print | Product List | Glossary On
Versions: 1 2 3 4 5 6 7 8 9 10 11 12 13
000
FTUS45 KABQ 261740
TAFTCC
TAF
KTCC 261740Z 2618/2718 15010KT P6SM SCT120
     FM262300 15010KT P6SM VCTS SCT070CB BKN130
     FM270100 12008KT P6SM VCSH SCT080 BKN130
     FM270900 VRB06KT P6SM BKN130
     FM271500 17006KT P6SM SCT130=

USA.gov is the U.S. government's official web portal to all federal, state and local government web resources and services.